createdAt,value
2022-12-20T00:01:00.114Z,2.80
2022-12-20T00:03:26.665Z,2.50
2022-12-20T00:05:53.455Z,2.80
2022-12-20T00:08:20.239Z,2.63
2022-12-20T00:10:47.034Z,2.50
2022-12-20T00:13:13.520Z,2.83
2022-12-20T00:15:40.365Z,2.00
2022-12-20T00:18:06.919Z,2.93
2022-12-20T00:20:34.081Z,2.87
2022-12-20T00:23:00.673Z,2.40
2022-12-20T00:25:27.231Z,2.60
2022-12-20T00:27:54.140Z,2.20
2022-12-20T00:30:20.825Z,2.13
2022-12-20T00:32:47.634Z,2.40
2022-12-20T00:35:14.353Z,2.60
2022-12-20T00:37:41.080Z,2.60
2022-12-20T00:40:08.260Z,2.10
2022-12-20T00:42:34.946Z,2.30
2022-12-20T00:45:01.825Z,2.33
2022-12-20T00:47:28.657Z,2.20
2022-12-20T00:49:55.247Z,2.30
2022-12-20T00:52:22.062Z,2.23
2022-12-20T00:54:48.655Z,2.63
2022-12-20T00:57:15.239Z,2.40
2022-12-20T00:59:41.801Z,2.10
2022-12-20T01:02:08.723Z,2.07
2022-12-20T01:04:35.540Z,2.47
2022-12-20T01:07:02.575Z,2.10
2022-12-20T01:09:29.202Z,2.70
2022-12-20T01:11:55.837Z,2.00
2022-12-20T01:14:22.439Z,2.20
2022-12-20T01:16:48.982Z,2.10
2022-12-20T01:19:17.351Z,1.97
2022-12-20T01:21:46.757Z,2.23
2022-12-20T01:24:15.493Z,2.37
2022-12-20T01:26:42.703Z,2.20
2022-12-20T01:29:09.502Z,2.23
2022-12-20T01:31:36.486Z,2.50
2022-12-20T01:34:06.348Z,2.20
2022-12-20T01:36:35.374Z,2.10
2022-12-20T01:39:03.564Z,2.30
2022-12-20T01:41:32.653Z,2.27
2022-12-20T01:44:06.402Z,2.10
2022-12-20T01:46:39.904Z,2.17
2022-12-20T01:49:07.041Z,2.30
2022-12-20T01:51:37.014Z,2.30
2022-12-20T01:54:22.257Z,2.03
2022-12-20T01:56:53.116Z,2.40
2022-12-20T01:59:20.107Z,2.40
2022-12-20T02:01:46.707Z,2.47
2022-12-20T02:04:13.403Z,2.10
2022-12-20T02:06:40.137Z,2.10
2022-12-20T02:09:07.699Z,2.33
2022-12-20T02:11:43.481Z,2.77
2022-12-20T02:14:35.316Z,2.50
2022-12-20T02:17:09.201Z,2.40
2022-12-20T02:19:57.164Z,2.10
2022-12-20T02:22:30.315Z,2.57
2022-12-20T02:25:02.799Z,2.40
2022-12-20T02:27:43.047Z,2.03
2022-12-20T02:30:11.105Z,2.50
2022-12-20T02:32:53.335Z,2.47
2022-12-20T02:35:23.735Z,2.40
2022-12-20T02:37:56.543Z,2.30
2022-12-20T02:40:30.530Z,2.60
2022-12-20T02:42:59.951Z,2.60
2022-12-20T02:45:36.946Z,2.17
2022-12-20T02:48:08.021Z,2.50
2022-12-20T02:50:42.473Z,2.70
2022-12-20T02:53:09.506Z,2.67
2022-12-20T02:55:50.238Z,2.50
2022-12-20T02:58:32.035Z,2.50
2022-12-20T03:01:04.661Z,2.33
2022-12-20T03:03:35.403Z,2.93
2022-12-20T03:06:02.583Z,2.80
2022-12-20T03:08:30.054Z,2.87
2022-12-20T03:10:56.912Z,2.70
2022-12-20T03:13:24.662Z,2.37
2022-12-20T03:15:51.557Z,2.67
2022-12-20T03:18:18.281Z,2.60
2022-12-20T03:20:45.115Z,2.30
2022-12-20T03:23:11.690Z,2.93
2022-12-20T03:25:38.225Z,2.70
2022-12-20T03:28:04.872Z,2.80
2022-12-20T03:30:31.607Z,2.60
2022-12-20T03:32:58.407Z,2.70
2022-12-20T03:35:25.211Z,3.00
2022-12-20T03:37:51.726Z,2.93
2022-12-20T03:40:18.502Z,3.03
2022-12-20T03:42:45.451Z,2.80
2022-12-20T03:45:12.338Z,2.43
2022-12-20T03:47:38.879Z,2.70
2022-12-20T03:50:06.783Z,2.93
2022-12-20T03:52:33.602Z,3.10
2022-12-20T03:55:00.586Z,3.00
2022-12-20T03:57:27.183Z,2.90
2022-12-20T03:59:54.322Z,2.70
2022-12-20T04:02:21.850Z,2.97
2022-12-20T04:04:49.047Z,2.73
2022-12-20T04:07:15.895Z,3.00
2022-12-20T04:09:42.682Z,2.93
2022-12-20T04:12:09.508Z,3.03
2022-12-20T04:14:37.405Z,2.80
2022-12-20T04:17:04.352Z,2.77
2022-12-20T04:19:30.956Z,3.13
2022-12-20T04:22:04.703Z,3.17
2022-12-20T04:24:32.457Z,3.00
2022-12-20T04:26:59.119Z,3.20
2022-12-20T04:29:25.621Z,2.83
2022-12-20T04:31:52.365Z,2.83
2022-12-20T04:34:18.977Z,3.00
2022-12-20T04:36:45.547Z,2.93
2022-12-20T04:39:12.123Z,2.90
2022-12-20T04:41:38.630Z,2.77
2022-12-20T04:44:05.326Z,3.10
2022-12-20T04:46:32.104Z,2.83
2022-12-20T04:48:59.758Z,2.90
2022-12-20T04:51:27.587Z,2.87
2022-12-20T04:53:54.886Z,3.33
2022-12-20T04:56:27.887Z,3.00
2022-12-20T04:58:56.233Z,2.93
2022-12-20T05:01:23.334Z,2.90
2022-12-20T05:03:50.490Z,2.90
2022-12-20T05:06:17.866Z,2.87
2022-12-20T05:08:44.736Z,3.10
2022-12-20T05:11:12.255Z,3.27
2022-12-20T05:13:39.002Z,2.60
2022-12-20T05:16:06.102Z,3.10
2022-12-20T05:18:32.835Z,2.90
2022-12-20T05:21:18.766Z,3.20
2022-12-20T05:24:04.548Z,2.90
2022-12-20T05:26:33.444Z,3.10
2022-12-20T05:28:59.996Z,3.50
2022-12-20T05:31:26.679Z,3.43
2022-12-20T05:33:54.301Z,3.50
2022-12-20T05:36:20.939Z,2.90
2022-12-20T05:38:47.521Z,3.10
2022-12-20T05:41:14.033Z,3.20
2022-12-20T05:43:40.977Z,2.50
2022-12-20T05:46:08.083Z,3.10
2022-12-20T05:48:34.735Z,3.20
2022-12-20T05:51:01.372Z,3.10
2022-12-20T05:53:28.839Z,3.50
2022-12-20T05:55:55.664Z,3.57
2022-12-20T05:58:22.429Z,3.47
2022-12-20T06:00:49.173Z,3.30
2022-12-20T06:03:15.961Z,3.43
2022-12-20T06:05:43.826Z,3.00
2022-12-20T06:08:11.471Z,2.93
2022-12-20T06:10:38.161Z,2.63
2022-12-20T06:13:05.061Z,3.20
2022-12-20T06:15:31.659Z,2.90
2022-12-20T06:17:58.304Z,2.80
2022-12-20T06:20:25.222Z,3.13
2022-12-20T06:22:52.661Z,2.80
2022-12-20T06:25:19.441Z,3.07
2022-12-20T06:27:46.678Z,3.23
2022-12-20T06:30:14.027Z,2.90
2022-12-20T06:32:40.640Z,2.60
2022-12-20T06:35:07.720Z,2.80
2022-12-20T06:37:34.634Z,2.77
2022-12-20T06:40:01.392Z,2.83
2022-12-20T06:42:28.453Z,2.93
2022-12-20T06:44:55.045Z,2.73
2022-12-20T06:47:21.818Z,2.50
2022-12-20T06:49:48.848Z,2.63
2022-12-20T06:52:15.312Z,2.63
2022-12-20T06:54:41.849Z,2.87
2022-12-20T06:57:08.695Z,2.80
2022-12-20T06:59:35.364Z,2.60
2022-12-20T07:02:02.685Z,2.70
2022-12-20T07:04:29.479Z,2.73
2022-12-20T07:06:57.285Z,2.47
2022-12-20T07:09:24.281Z,2.60
2022-12-20T07:11:51.073Z,2.50
2022-12-20T07:14:17.661Z,2.63
2022-12-20T07:16:44.770Z,2.90
2022-12-20T07:19:12.620Z,2.60
2022-12-20T07:21:39.226Z,2.33
2022-12-20T07:24:06.480Z,2.20
2022-12-20T07:26:33.402Z,2.63
2022-12-20T07:29:00.175Z,2.30
2022-12-20T07:31:26.897Z,2.20
2022-12-20T07:33:53.408Z,2.23
2022-12-20T07:36:20.096Z,2.20
2022-12-20T07:38:46.721Z,2.40
2022-12-20T07:41:15.328Z,2.50
2022-12-20T07:43:42.371Z,2.60
2022-12-20T07:46:09.634Z,2.23
2022-12-20T07:48:36.300Z,2.13
2022-12-20T07:51:10.084Z,2.20
2022-12-20T07:53:43.777Z,2.63
2022-12-20T07:56:11.260Z,2.40
2022-12-20T07:58:38.824Z,2.33
2022-12-20T08:01:05.863Z,2.37
2022-12-20T08:03:48.172Z,2.40
2022-12-20T08:06:15.394Z,2.30
2022-12-20T08:08:50.685Z,2.30
2022-12-20T08:11:17.529Z,2.50
2022-12-20T08:13:46.659Z,2.40
2022-12-20T08:16:14.111Z,2.50
2022-12-20T08:18:40.677Z,2.40
2022-12-20T08:21:07.557Z,2.27
2022-12-20T08:23:34.983Z,2.37
2022-12-20T08:26:01.997Z,2.37
2022-12-20T08:28:28.654Z,2.67
2022-12-20T08:31:04.364Z,2.70
2022-12-20T08:33:32.138Z,2.30
2022-12-20T08:35:59.939Z,2.73
2022-12-20T08:38:28.334Z,2.30
2022-12-20T08:40:55.092Z,2.33
2022-12-20T08:43:21.697Z,2.83
2022-12-20T08:45:55.224Z,2.23
2022-12-20T08:48:22.232Z,2.50
2022-12-20T08:50:54.791Z,2.63
2022-12-20T08:53:21.514Z,2.53
2022-12-20T08:55:48.312Z,2.70
2022-12-20T08:58:15.851Z,2.23
2022-12-20T09:00:42.603Z,2.17
2022-12-20T09:03:14.057Z,2.27
2022-12-20T09:05:47.537Z,2.20
2022-12-20T09:08:15.479Z,2.03
2022-12-20T09:10:42.145Z,1.87
2022-12-20T09:13:08.902Z,2.20
2022-12-20T09:15:36.215Z,2.17
2022-12-20T09:18:03.269Z,2.20
2022-12-20T09:20:29.913Z,2.10
2022-12-20T09:22:56.397Z,2.30
2022-12-20T09:25:23.106Z,2.03
2022-12-20T09:27:50.085Z,2.07
2022-12-20T09:30:16.840Z,2.40
2022-12-20T09:32:43.325Z,2.43
2022-12-20T09:35:09.982Z,2.07
2022-12-20T09:37:36.570Z,1.87
2022-12-20T09:40:04.414Z,2.47
2022-12-20T09:42:31.595Z,2.23
2022-12-20T09:45:06.293Z,2.40
2022-12-20T09:47:34.764Z,2.17
2022-12-20T09:50:02.496Z,2.17
2022-12-20T09:53:06.914Z,2.10
2022-12-20T09:55:41.436Z,2.27
2022-12-20T09:58:19.522Z,2.60
2022-12-20T10:00:53.545Z,2.10
2022-12-20T10:03:32.114Z,1.93
2022-12-20T10:06:04.398Z,2.20
2022-12-20T10:08:37.266Z,2.20
2022-12-20T10:11:43.477Z,2.30
2022-12-20T10:14:36.718Z,2.50
2022-12-20T10:17:32.611Z,2.00
2022-12-20T10:20:19.964Z,2.40
2022-12-20T10:23:17.775Z,2.30
2022-12-20T10:25:46.167Z,1.80
2022-12-20T10:28:15.674Z,2.10
2022-12-20T10:30:43.031Z,2.10
2022-12-20T10:33:21.191Z,2.10
2022-12-20T10:35:48.554Z,2.20
2022-12-20T10:38:17.750Z,2.27
2022-12-20T10:43:59.024Z,2.40
2022-12-20T10:46:36.620Z,2.10
2022-12-20T10:49:21.657Z,2.20
2022-12-20T10:51:52.942Z,1.93
2022-12-20T10:54:25.545Z,1.97
2022-12-20T10:57:01.240Z,2.57
2022-12-20T10:59:35.448Z,1.93
2022-12-20T11:02:21.804Z,2.03
2022-12-20T11:05:24.077Z,2.47
2022-12-20T11:08:34.087Z,1.87
2022-12-20T11:11:12.772Z,2.03
2022-12-20T11:13:40.361Z,2.03
2022-12-20T11:16:24.679Z,2.20
2022-12-20T11:19:07.052Z,2.30
2022-12-20T11:22:04.272Z,2.00
2022-12-20T11:24:38.907Z,2.10
2022-12-20T11:27:15.099Z,2.50
2022-12-20T11:30:08.331Z,2.27
2022-12-20T11:33:05.254Z,2.13
2022-12-20T11:35:53.780Z,2.30
2022-12-20T11:38:31.209Z,2.23
2022-12-20T11:41:37.574Z,1.83
2022-12-20T11:44:25.253Z,2.10
2022-12-20T11:47:11.201Z,2.27
2022-12-20T11:49:59.884Z,2.20
2022-12-20T11:52:41.225Z,1.87
2022-12-20T11:55:20.631Z,1.97
2022-12-20T11:58:16.386Z,2.47
2022-12-20T12:00:35.387Z,2.17
2022-12-20T12:03:11.186Z,2.00
2022-12-20T12:05:45.010Z,2.23
2022-12-20T12:08:18.537Z,1.87
2022-12-20T12:10:58.026Z,2.20
2022-12-20T12:13:28.271Z,2.40
2022-12-20T12:16:03.998Z,1.93
2022-12-20T12:18:32.063Z,2.10
2022-12-20T12:21:18.007Z,2.10
2022-12-20T12:23:44.769Z,1.70
2022-12-20T12:26:22.390Z,2.00
2022-12-20T12:28:56.583Z,2.20
2022-12-20T12:31:45.398Z,1.90
2022-12-20T12:34:41.165Z,2.00
2022-12-20T12:37:32.497Z,2.20
2022-12-20T12:40:10.555Z,2.30
2022-12-20T12:43:03.598Z,2.20
2022-12-20T12:45:35.252Z,1.97
2022-12-20T12:48:12.620Z,2.00
2022-12-20T12:50:43.256Z,2.27
2022-12-20T12:53:16.805Z,2.10
2022-12-20T12:55:43.442Z,2.07
2022-12-20T12:58:25.407Z,1.83
2022-12-20T13:00:54.770Z,2.20
2022-12-20T13:03:54.128Z,2.60
2022-12-20T13:06:23.890Z,1.80
2022-12-20T13:09:16.383Z,2.30
2022-12-20T13:11:47.346Z,2.10
2022-12-20T13:14:17.926Z,2.20
2022-12-20T13:19:36.987Z,2.20
2022-12-20T13:22:06.285Z,2.70
2022-12-20T13:24:50.903Z,2.93
2022-12-20T13:27:18.968Z,2.50
2022-12-20T13:30:04.565Z,2.13
2022-12-20T13:32:49.409Z,2.47
2022-12-20T13:35:25.155Z,2.10
2022-12-20T13:38:13.251Z,2.23
2022-12-20T13:40:48.462Z,2.40
2022-12-20T13:43:21.950Z,2.30
2022-12-20T13:46:08.891Z,2.03
2022-12-20T13:48:38.209Z,2.10
2022-12-20T13:51:05.840Z,2.57
2022-12-20T13:53:32.484Z,2.33
2022-12-20T13:55:59.081Z,2.17
2022-12-20T13:58:28.332Z,3.13
2022-12-20T14:01:05.682Z,2.83
2022-12-20T14:03:32.731Z,2.70
2022-12-20T14:06:02.323Z,2.30
2022-12-20T14:08:34.164Z,2.87
2022-12-20T14:11:27.353Z,2.60
2022-12-20T14:14:03.884Z,2.50
2022-12-20T14:16:32.368Z,2.80
2022-12-20T14:19:04.469Z,2.80
2022-12-20T14:21:31.489Z,2.53
2022-12-20T14:23:59.574Z,2.70
2022-12-20T14:26:33.403Z,2.63
2022-12-20T14:29:01.372Z,2.77
2022-12-20T14:31:47.128Z,2.60
2022-12-20T14:34:13.892Z,2.90
2022-12-20T14:36:50.167Z,2.67
2022-12-20T14:39:34.228Z,2.53
2022-12-20T14:42:00.793Z,2.37
2022-12-20T14:44:29.777Z,2.93
2022-12-20T14:46:59.192Z,3.03
2022-12-20T14:49:36.957Z,2.93
2022-12-20T14:52:12.709Z,3.27
2022-12-20T14:57:37.545Z,2.70
2022-12-20T15:00:14.446Z,3.50
2022-12-20T15:02:46.215Z,3.40
2022-12-20T15:05:35.348Z,2.80
2022-12-20T15:08:14.016Z,2.70
2022-12-20T15:10:42.893Z,3.17
2022-12-20T15:13:14.850Z,3.13
2022-12-20T15:15:41.822Z,3.00
2022-12-20T15:18:16.028Z,3.30
2022-12-20T15:20:44.330Z,3.33
2022-12-20T15:23:18.979Z,3.07
2022-12-20T15:25:45.941Z,3.80
2022-12-20T15:28:19.723Z,3.80
2022-12-20T15:30:47.775Z,3.20
2022-12-20T15:33:17.414Z,3.00
2022-12-20T15:35:44.986Z,4.20
2022-12-20T15:38:34.705Z,3.87
2022-12-20T15:41:14.073Z,3.63
2022-12-20T15:43:40.736Z,3.63
2022-12-20T15:46:07.349Z,3.60
2022-12-20T15:48:33.945Z,3.27
2022-12-20T15:51:00.612Z,3.50
2022-12-20T15:53:36.167Z,3.23
2022-12-20T15:56:02.754Z,3.97
2022-12-20T15:58:29.407Z,3.57
2022-12-20T16:00:59.537Z,3.83
2022-12-20T16:03:30.865Z,3.67
2022-12-20T16:05:57.982Z,3.33
2022-12-20T16:08:24.940Z,3.87
2022-12-20T16:10:52.315Z,3.40
2022-12-20T16:13:23.159Z,3.50
2022-12-20T16:15:50.357Z,3.20
2022-12-20T16:18:17.318Z,3.30
2022-12-20T16:20:44.491Z,2.97
2022-12-20T16:23:24.302Z,2.90
2022-12-20T16:25:51.153Z,3.60
2022-12-20T16:28:18.206Z,3.20
2022-12-20T16:30:50.946Z,3.00
2022-12-20T16:33:21.204Z,3.33
2022-12-20T16:35:48.225Z,3.33
2022-12-20T16:38:14.753Z,3.40
2022-12-20T16:40:41.493Z,3.17
2022-12-20T16:43:14.326Z,2.87
2022-12-20T16:45:40.886Z,2.60
2022-12-20T16:48:09.547Z,3.20
2022-12-20T16:50:41.529Z,2.90
2022-12-20T16:53:12.562Z,2.87
2022-12-20T16:55:40.087Z,2.80
2022-12-20T16:58:07.317Z,2.77
2022-12-20T17:00:33.871Z,2.57
2022-12-20T17:03:00.732Z,3.33
2022-12-20T17:05:33.447Z,2.83
2022-12-20T17:08:00.634Z,2.77
2022-12-20T17:10:27.450Z,2.90
2022-12-20T17:12:55.593Z,2.90
2022-12-20T17:15:27.875Z,2.93
2022-12-20T17:17:54.904Z,2.63
2022-12-20T17:20:22.925Z,2.60
2022-12-20T17:22:54.385Z,2.93
2022-12-20T17:25:24.096Z,2.93
2022-12-20T17:27:51.332Z,2.83
2022-12-20T17:30:18.517Z,2.93
2022-12-20T17:32:45.298Z,2.70
2022-12-20T17:35:27.712Z,3.30
2022-12-20T17:37:56.337Z,3.07
2022-12-20T17:40:24.227Z,2.80
2022-12-20T17:42:51.244Z,2.30
2022-12-20T17:45:32.485Z,3.07
2022-12-20T17:47:59.654Z,2.60
2022-12-20T17:50:26.709Z,2.90
2022-12-20T17:52:54.765Z,2.77
2022-12-20T17:55:27.292Z,3.00
2022-12-20T17:57:55.022Z,3.10
2022-12-20T18:00:38.127Z,2.87
2022-12-20T18:03:05.759Z,3.00
2022-12-20T18:05:32.352Z,2.63
2022-12-20T18:07:59.009Z,2.77
2022-12-20T18:10:25.733Z,2.60
2022-12-20T18:12:52.344Z,3.17
2022-12-20T18:15:20.136Z,2.83
2022-12-20T18:17:47.080Z,2.87
2022-12-20T18:20:15.664Z,2.83
2022-12-20T18:22:42.298Z,2.57
2022-12-20T18:25:09.825Z,2.40
2022-12-20T18:27:38.383Z,3.03
2022-12-20T18:30:05.881Z,2.73
2022-12-20T18:32:32.526Z,2.70
2022-12-20T18:34:59.192Z,3.00
2022-12-20T18:37:25.893Z,3.10
2022-12-20T18:39:52.557Z,2.67
2022-12-20T18:42:19.263Z,2.77
2022-12-20T18:44:45.783Z,2.50
2022-12-20T18:47:12.383Z,2.80
2022-12-20T18:49:39.349Z,2.90
2022-12-20T18:52:06.164Z,2.60
2022-12-20T18:54:32.791Z,2.50
2022-12-20T18:56:59.468Z,2.77
2022-12-20T18:59:25.952Z,2.63
2022-12-20T19:01:53.029Z,3.13
2022-12-20T19:04:24.551Z,2.77
2022-12-20T19:06:51.785Z,3.37
2022-12-20T19:09:18.478Z,3.13
2022-12-20T19:11:45.090Z,3.17
2022-12-20T19:14:12.617Z,3.00
2022-12-20T19:16:40.108Z,3.57
2022-12-20T19:19:08.488Z,3.87
2022-12-20T19:21:37.724Z,3.33
2022-12-20T19:24:06.982Z,3.63
2022-12-20T19:26:35.705Z,4.00
2022-12-20T19:29:03.171Z,3.20
2022-12-20T19:31:33.286Z,3.67
2022-12-20T19:34:03.507Z,3.03
2022-12-20T19:36:39.495Z,3.17
2022-12-20T19:39:08.471Z,3.27
2022-12-20T19:41:35.831Z,3.33
2022-12-20T19:44:03.145Z,3.40
2022-12-20T19:46:30.654Z,3.43
2022-12-20T19:48:58.883Z,3.40
2022-12-20T19:51:26.617Z,3.43
2022-12-20T19:53:54.257Z,3.70
2022-12-20T19:56:27.220Z,3.43
2022-12-20T19:58:55.021Z,3.93
2022-12-20T20:01:25.696Z,2.97
2022-12-20T20:03:53.814Z,3.40
2022-12-20T20:06:21.277Z,3.80
2022-12-20T20:08:51.154Z,3.30
2022-12-20T20:11:19.569Z,3.70
2022-12-20T20:13:47.224Z,3.50
2022-12-20T20:16:20.276Z,3.30
2022-12-20T20:18:49.448Z,4.43
2022-12-20T20:21:21.889Z,3.40
2022-12-20T20:23:50.449Z,3.90
2022-12-20T20:26:19.991Z,3.77
2022-12-20T20:28:46.610Z,3.60
2022-12-20T20:31:15.343Z,3.43
2022-12-20T20:33:42.829Z,3.83
2022-12-20T20:36:13.407Z,4.17
2022-12-20T20:38:40.252Z,4.07
2022-12-20T20:41:06.927Z,3.80
2022-12-20T20:43:38.102Z,3.93
2022-12-20T20:46:06.411Z,8.03
2022-12-20T20:48:33.349Z,4.43
2022-12-20T20:51:00.083Z,4.47
2022-12-20T20:53:33.140Z,4.53
2022-12-20T20:56:00.272Z,4.07
2022-12-20T20:58:27.290Z,4.57
2022-12-20T21:00:59.301Z,4.30
2022-12-20T21:03:27.559Z,4.03
2022-12-20T21:08:41.196Z,3.73
2022-12-20T21:11:08.908Z,4.17
2022-12-20T21:13:36.298Z,4.03
2022-12-20T21:16:12.025Z,3.53
2022-12-20T21:18:38.968Z,3.90
2022-12-20T21:21:10.800Z,3.40
2022-12-20T21:23:38.770Z,3.40
2022-12-20T21:26:05.776Z,3.33
2022-12-20T21:28:32.409Z,3.43
2022-12-20T21:31:01.079Z,3.17
2022-12-20T21:33:28.684Z,3.30
2022-12-20T21:36:03.244Z,3.10
2022-12-20T21:38:29.913Z,3.47
2022-12-20T21:41:04.331Z,3.07
2022-12-20T21:43:31.249Z,2.70
2022-12-20T21:45:57.969Z,2.77
2022-12-20T21:48:25.525Z,3.20
2022-12-20T21:51:03.904Z,3.20
2022-12-20T21:53:32.252Z,3.60
2022-12-20T21:56:00.580Z,2.90
2022-12-20T21:58:29.146Z,2.73
2022-12-20T22:00:56.363Z,3.00
2022-12-20T22:03:24.040Z,3.00
2022-12-20T22:05:52.708Z,3.00
2022-12-20T22:08:20.372Z,2.73
2022-12-20T22:10:47.120Z,3.20
2022-12-20T22:13:13.886Z,3.27
2022-12-20T22:15:40.949Z,2.90
2022-12-20T22:18:08.155Z,2.70
2022-12-20T22:20:35.748Z,3.03
2022-12-20T22:23:02.746Z,2.87
2022-12-20T22:25:29.298Z,2.90
2022-12-20T22:27:55.921Z,2.97
2022-12-20T22:30:22.470Z,3.00
2022-12-20T22:32:49.034Z,3.20
2022-12-20T22:35:22.293Z,3.07
2022-12-20T22:37:49.585Z,3.20
2022-12-20T22:40:16.142Z,2.87
2022-12-20T22:42:43.068Z,3.03
2022-12-20T22:45:10.301Z,3.20
2022-12-20T22:47:37.182Z,3.33
2022-12-20T22:50:04.804Z,2.97
2022-12-20T22:52:33.036Z,3.20
2022-12-20T22:54:59.796Z,3.30
2022-12-20T22:57:26.447Z,3.40
2022-12-20T22:59:53.079Z,3.63
2022-12-20T23:02:20.023Z,3.90
2022-12-20T23:04:46.757Z,4.03
2022-12-20T23:07:13.271Z,4.00
2022-12-20T23:09:40.052Z,3.40
2022-12-20T23:12:29.770Z,3.73
2022-12-20T23:15:25.082Z,3.40
2022-12-20T23:17:52.126Z,3.70
2022-12-20T23:20:37.314Z,3.80
2022-12-20T23:23:03.970Z,3.50
2022-12-20T23:25:30.715Z,3.63
2022-12-20T23:27:57.247Z,3.63
2022-12-20T23:30:24.675Z,3.87
2022-12-20T23:32:51.397Z,4.27
2022-12-20T23:35:19.989Z,3.53
2022-12-20T23:37:47.121Z,4.20
2022-12-20T23:40:16.439Z,4.40
2022-12-20T23:42:43.572Z,4.17
2022-12-20T23:45:11.176Z,4.80
2022-12-20T23:47:38.024Z,4.43
2022-12-20T23:50:05.239Z,4.40
2022-12-20T23:52:31.931Z,5.10
2022-12-20T23:54:58.504Z,5.20
2022-12-20T23:57:25.096Z,5.13
2022-12-20T23:59:51.642Z,5.10
